Time;durP1;ratioP1;P1;durP2;ratioP2;P2;SDS_P1;SDS_P2;PMS_P1;PMS_P2;Temp;Humidity;BMP_temperature;BMP_pressure;BME280_temperature;BME280_humidity;BME280_pressure;Samples;Min_cycle;Max_cycle;Signal;HPM_P1;HPM_P2
2021/08/26 00:06:49;;;;;;;;;20.75;20.00;;;;;;;;6304887;22;45439;-71
2021/08/26 00:09:16;;;;;;;;;29.25;25.75;;;;;;;;6304250;22;45452;-72
2021/08/26 00:11:44;;;;;;;;;21.25;19.75;;;;;;;;6304382;22;45313;-72
2021/08/26 00:14:09;;;;;;;;;21.25;18.50;;;;;;;;6303712;22;45253;-72
2021/08/26 00:16:34;;;;;;;;;21.50;19.25;;;;;;;;6304816;22;45265;-72
2021/08/26 00:18:59;;;;;;;;;20.25;20.00;;;;;;;;6304299;22;45453;-72
2021/08/26 00:21:27;;;;;;;;;16.00;14.50;;;;;;;;6304558;22;46061;-72
2021/08/26 00:23:52;;;;;;;;;21.25;20.75;;;;;;;;6304199;22;45281;-72
2021/08/26 00:26:17;;;;;;;;;18.25;17.00;;;;;;;;6303880;22;45210;-72
2021/08/26 00:28:42;;;;;;;;;19.25;16.50;;;;;;;;6303732;22;45380;-72
2021/08/26 00:31:08;;;;;;;;;20.50;19.00;;;;;;;;6303911;22;45280;-72
2021/08/26 00:33:33;;;;;;;;;21.50;18.75;;;;;;;;6304067;22;45394;-71
2021/08/26 00:35:58;;;;;;;;;18.25;16.25;;;;;;;;6304145;22;45375;-72
2021/08/26 00:38:24;;;;;;;;;20.25;18.50;;;;;;;;6304314;22;45177;-72
2021/08/26 00:40:49;;;;;;;;;20.25;18.00;;;;;;;;6303961;22;45332;-72
2021/08/26 00:43:14;;;;;;;;;16.50;15.00;;;;;;;;6304106;22;45295;-72
2021/08/26 00:45:40;;;;;;;;;17.00;15.25;;;;;;;;6304169;22;45287;-72
2021/08/26 00:48:07;;;;;;;;;18.00;13.75;;;;;;;;6303981;22;45460;-71
2021/08/26 00:50:32;;;;;;;;;18.25;14.25;;;;;;;;6303571;22;47026;-71
2021/08/26 00:52:57;;;;;;;;;13.25;13.00;;;;;;;;6303846;22;45222;-72
2021/08/26 00:55:23;;;;;;;;;14.50;12.75;;;;;;;;6304460;22;45265;-72
2021/08/26 00:57:48;;;;;;;;;14.00;13.00;;;;;;;;6304225;22;45304;-72
2021/08/26 01:00:13;;;;;;;;;10.50;10.50;;;;;;;;6303800;22;45226;-72
2021/08/26 01:02:58;;;;;;;;;15.50;14.50;;;;;;;;6303521;22;45227;-72
2021/08/26 01:05:25;;;;;;;;;13.75;11.25;;;;;;;;6303798;22;45331;-72
2021/08/26 01:07:58;;;;;;;;;13.50;12.00;;;;;;;;6304498;22;45596;-72
2021/08/26 01:10:24;;;;;;;;;14.25;13.75;;;;;;;;6304210;22;45360;-72
2021/08/26 01:12:51;;;;;;;;;11.25;11.25;;;;;;;;6303440;22;45154;-73
2021/08/26 01:15:16;;;;;;;;;13.00;10.00;;;;;;;;6304742;22;45218;-72
2021/08/26 01:17:43;;;;;;;;;13.00;12.00;;;;;;;;6304123;22;45474;-72
2021/08/26 01:20:09;;;;;;;;;11.00;9.50;;;;;;;;6303878;22;48179;-71
2021/08/26 01:22:35;;;;;;;;;9.50;9.50;;;;;;;;6276204;22;45472;-71
2021/08/26 01:25:15;;;;;;;;;8.50;8.25;;;;;;;;6304726;22;45365;-71
2021/08/26 01:27:49;;;;;;;;;9.00;9.00;;;;;;;;6304414;22;45403;-72
2021/08/26 01:30:16;;;;;;;;;8.75;8.75;;;;;;;;6304126;22;46073;-72
2021/08/26 01:32:42;;;;;;;;;9.00;8.00;;;;;;;;6304260;22;45241;-71
2021/08/26 01:35:08;;;;;;;;;8.75;8.75;;;;;;;;6304048;22;45245;-72
2021/08/26 01:37:36;;;;;;;;;10.00;10.00;;;;;;;;6303982;22;45451;-71
2021/08/26 01:40:01;;;;;;;;;11.50;11.00;;;;;;;;6304195;22;46299;-72
2021/08/26 01:42:26;;;;;;;;;8.25;8.25;;;;;;;;6304075;22;45284;-72
2021/08/26 01:44:52;;;;;;;;;10.50;8.75;;;;;;;;6303869;22;45229;-71
2021/08/26 01:47:21;;;;;;;;;7.75;7.75;;;;;;;;6304326;22;45324;-72
2021/08/26 01:49:49;;;;;;;;;10.50;8.75;;;;;;;;6303650;22;47329;-72
2021/08/26 01:52:16;;;;;;;;;10.00;9.00;;;;;;;;6304119;22;45260;-71
2021/08/26 01:54:50;;;;;;;;;8.50;7.75;;;;;;;;6304215;22;45318;-72
2021/08/26 01:57:16;;;;;;;;;12.75;11.75;;;;;;;;6303631;22;45534;-72
2021/08/26 01:59:41;;;;;;;;;12.00;11.50;;;;;;;;6303829;22;46005;-71
2021/08/26 02:02:06;;;;;;;;;10.50;9.50;;;;;;;;6275665;22;45336;-72
2021/08/26 02:04:32;;;;;;;;;9.50;9.25;;;;;;;;6304150;22;45681;-71
2021/08/26 02:06:57;;;;;;;;;13.75;12.50;;;;;;;;6304340;22;45391;-72
2021/08/26 02:09:22;;;;;;;;;15.25;10.75;;;;;;;;6303596;22;45312;-71
2021/08/26 02:11:47;;;;;;;;;11.25;11.00;;;;;;;;6303757;22;45306;-71
2021/08/26 02:14:12;;;;;;;;;15.00;12.00;;;;;;;;6276204;22;45320;-71
2021/08/26 02:16:38;;;;;;;;;12.50;12.00;;;;;;;;6275975;22;45546;-71
2021/08/26 02:19:03;;;;;;;;;13.50;13.50;;;;;;;;6303929;22;45990;-72
2021/08/26 02:21:28;;;;;;;;;12.75;12.00;;;;;;;;6304003;22;45251;-71
2021/08/26 02:23:54;;;;;;;;;15.75;13.50;;;;;;;;6303927;22;45249;-72
2021/08/26 02:26:19;;;;;;;;;13.75;12.75;;;;;;;;6305012;22;45393;-71
2021/08/26 02:28:45;;;;;;;;;15.00;13.75;;;;;;;;6304903;22;45179;-71
2021/08/26 02:31:10;;;;;;;;;9.00;9.00;;;;;;;;6305219;22;45153;-72
2021/08/26 02:33:35;;;;;;;;;10.75;9.50;;;;;;;;6305451;22;45348;-72
2021/08/26 02:36:00;;;;;;;;;8.00;8.00;;;;;;;;6305168;22;45352;-72
2021/08/26 02:38:25;;;;;;;;;12.00;9.50;;;;;;;;6304339;22;46912;-72
2021/08/26 02:40:50;;;;;;;;;9.25;7.25;;;;;;;;6305195;22;45238;-71
2021/08/26 02:43:16;;;;;;;;;10.25;7.50;;;;;;;;6277275;22;45395;-72
2021/08/26 02:45:41;;;;;;;;;9.50;8.00;;;;;;;;6305074;22;45447;-71
2021/08/26 02:48:06;;;;;;;;;9.50;9.50;;;;;;;;6304860;22;45949;-71
2021/08/26 02:50:31;;;;;;;;;8.50;8.25;;;;;;;;6304554;22;45282;-71
2021/08/26 02:52:56;;;;;;;;;7.75;6.50;;;;;;;;6304899;22;45300;-71
2021/08/26 02:55:22;;;;;;;;;5.00;5.00;;;;;;;;6305005;22;45204;-71
2021/08/26 02:57:47;;;;;;;;;5.50;4.50;;;;;;;;6305274;22;45307;-71
2021/08/26 03:00:12;;;;;;;;;7.00;6.25;;;;;;;;6304937;22;45209;-71
2021/08/26 03:02:37;;;;;;;;;5.50;5.50;;;;;;;;6305184;22;45448;-71
2021/08/26 03:05:03;;;;;;;;;7.75;6.50;;;;;;;;6304806;22;45387;-71
2021/08/26 03:07:28;;;;;;;;;6.00;5.00;;;;;;;;6304101;22;46306;-71
2021/08/26 03:09:53;;;;;;;;;7.75;6.00;;;;;;;;6304808;22;45173;-72
2021/08/26 03:12:18;;;;;;;;;5.00;5.00;;;;;;;;6304844;22;45244;-73
2021/08/26 03:14:43;;;;;;;;;6.25;4.25;;;;;;;;6304867;22;45453;-72
2021/08/26 03:17:09;;;;;;;;;4.50;4.50;;;;;;;;6303967;22;45933;-72
2021/08/26 03:19:34;;;;;;;;;5.00;5.00;;;;;;;;6304068;22;45324;-72
2021/08/26 03:21:59;;;;;;;;;5.50;4.25;;;;;;;;6304504;22;45266;-71
2021/08/26 03:24:24;;;;;;;;;3.50;3.50;;;;;;;;6304885;22;45277;-72
2021/08/26 03:26:49;;;;;;;;;4.50;4.00;;;;;;;;6304496;22;45218;-71
2021/08/26 03:29:14;;;;;;;;;5.75;5.00;;;;;;;;6304744;22;45307;-72
2021/08/26 03:31:40;;;;;;;;;4.00;2.00;;;;;;;;6305402;22;45330;-72
2021/08/26 03:34:05;;;;;;;;;4.00;4.00;;;;;;;;6304516;22;45313;-72
2021/08/26 03:36:30;;;;;;;;;5.00;4.00;;;;;;;;6303901;22;47032;-72
2021/08/26 03:38:55;;;;;;;;;4.00;4.00;;;;;;;;6304518;22;45312;-71
2021/08/26 03:41:21;;;;;;;;;3.00;3.00;;;;;;;;6304446;22;45339;-71
2021/08/26 03:43:47;;;;;;;;;3.75;2.75;;;;;;;;6304963;22;45467;-71
2021/08/26 03:46:12;;;;;;;;;4.00;4.00;;;;;;;;6304274;22;45330;-70
2021/08/26 03:48:37;;;;;;;;;4.75;3.25;;;;;;;;6304499;22;45316;-70
2021/08/26 03:51:03;;;;;;;;;4.25;4.25;;;;;;;;6304104;22;45383;-71
2021/08/26 03:53:28;;;;;;;;;3.00;3.00;;;;;;;;6276860;22;45266;-70
2021/08/26 03:55:53;;;;;;;;;4.50;4.50;;;;;;;;6304061;22;46364;-71
2021/08/26 03:58:18;;;;;;;;;6.50;6.50;;;;;;;;6304057;22;45287;-70
2021/08/26 04:00:43;;;;;;;;;4.50;3.00;;;;;;;;6304208;22;45324;-71
2021/08/26 04:03:09;;;;;;;;;3.00;3.00;;;;;;;;6304641;22;45197;-71
2021/08/26 04:05:34;;;;;;;;;4.25;4.25;;;;;;;;6303776;22;45417;-71
2021/08/26 04:07:59;;;;;;;;;6.00;5.00;;;;;;;;6276196;22;45871;-72
2021/08/26 04:10:24;;;;;;;;;3.25;2.75;;;;;;;;6304461;22;45235;-72
2021/08/26 04:12:49;;;;;;;;;7.75;6.25;;;;;;;;6304172;22;45206;-70
2021/08/26 04:15:15;;;;;;;;;6.00;5.00;;;;;;;;6303949;22;45320;-71
2021/08/26 04:17:40;;;;;;;;;7.00;4.00;;;;;;;;6304145;22;45249;-71
2021/08/26 04:20:05;;;;;;;;;11.25;8.00;;;;;;;;6303804;22;45218;-72
2021/08/26 04:22:30;;;;;;;;;7.00;6.00;;;;;;;;6304015;22;45488;-71
2021/08/26 04:24:55;;;;;;;;;4.00;4.00;;;;;;;;6303821;22;47082;-71
2021/08/26 04:27:21;;;;;;;;;4.00;4.00;;;;;;;;6303813;22;45256;-71
2021/08/26 04:29:46;;;;;;;;;8.50;8.50;;;;;;;;6303742;22;45234;-70
2021/08/26 04:32:11;;;;;;;;;9.25;7.75;;;;;;;;6303689;22;45421;-72
2021/08/26 04:34:36;;;;;;;;;2.75;2.75;;;;;;;;6303359;22;45352;-72
2021/08/26 04:37:02;;;;;;;;;7.25;5.25;;;;;;;;6304436;22;45147;-72
2021/08/26 04:39:27;;;;;;;;;11.25;7.00;;;;;;;;6303648;22;45172;-72
2021/08/26 04:41:52;;;;;;;;;6.50;5.00;;;;;;;;6303919;22;45470;-71
2021/08/26 04:44:17;;;;;;;;;4.00;4.00;;;;;;;;6304201;22;45284;-71
2021/08/26 04:46:42;;;;;;;;;2.50;2.25;;;;;;;;6303449;22;45225;-71
2021/08/26 04:49:07;;;;;;;;;6.00;5.75;;;;;;;;6303819;22;45146;-71
2021/08/26 04:51:33;;;;;;;;;6.25;4.00;;;;;;;;6303695;22;45434;-71
2021/08/26 04:53:58;;;;;;;;;4.25;3.25;;;;;;;;6303466;22;47054;-71
2021/08/26 04:56:23;;;;;;;;;4.75;3.00;;;;;;;;6303206;22;45185;-72
2021/08/26 04:58:48;;;;;;;;;7.00;7.00;;;;;;;;6303033;22;45334;-72
2021/08/26 05:01:13;;;;;;;;;6.25;5.25;;;;;;;;6303765;22;45304;-72
2021/08/26 05:03:39;;;;;;;;;8.00;6.50;;;;;;;;6275568;22;46223;-72
2021/08/26 05:06:04;;;;;;;;;3.50;3.00;;;;;;;;6302906;22;45390;-72
2021/08/26 05:08:30;;;;;;;;;3.50;3.50;;;;;;;;6303390;22;45319;-74
2021/08/26 05:10:55;;;;;;;;;3.75;3.00;;;;;;;;6302710;22;45332;-72
2021/08/26 05:13:20;;;;;;;;;4.00;2.00;;;;;;;;6302922;22;45304;-71
2021/08/26 05:15:45;;;;;;;;;3.50;3.00;;;;;;;;6304078;22;45292;-69
2021/08/26 05:18:10;;;;;;;;;2.25;2.25;;;;;;;;6303554;22;45284;-70
2021/08/26 05:20:36;;;;;;;;;1.25;1.25;;;;;;;;6302401;22;45303;-71
2021/08/26 05:23:01;;;;;;;;;8.00;6.50;;;;;;;;6303019;22;45251;-68
2021/08/26 05:25:26;;;;;;;;;5.25;3.50;;;;;;;;6303314;22;45390;-68
2021/08/26 05:27:51;;;;;;;;;3.25;2.25;;;;;;;;6303659;22;45305;-71
2021/08/26 05:30:17;;;;;;;;;2.00;2.00;;;;;;;;6303120;22;45234;-70
2021/08/26 05:32:42;;;;;;;;;2.25;2.25;;;;;;;;6302645;22;47352;-72
2021/08/26 05:35:08;;;;;;;;;2.75;2.25;;;;;;;;6303171;22;45422;-70
2021/08/26 05:37:33;;;;;;;;;3.25;3.25;;;;;;;;6303321;22;45417;-69
2021/08/26 05:39:58;;;;;;;;;4.00;3.00;;;;;;;;6303182;22;45317;-71
2021/08/26 05:42:23;;;;;;;;;7.75;4.75;;;;;;;;6303208;22;45567;-71
2021/08/26 05:44:49;;;;;;;;;4.75;4.75;;;;;;;;6302337;22;45241;-70
2021/08/26 05:47:14;;;;;;;;;8.25;6.50;;;;;;;;6302970;22;45363;-71
2021/08/26 05:49:39;;;;;;;;;3.50;2.75;;;;;;;;6303258;22;45110;-70
2021/08/26 05:52:05;;;;;;;;;4.00;3.00;;;;;;;;6302832;22;45318;-70
2021/08/26 05:54:30;;;;;;;;;2.00;2.00;;;;;;;;6303584;22;45218;-70
2021/08/26 05:56:58;;;;;;;;;3.00;3.00;;;;;;;;6303477;22;45238;-69
2021/08/26 05:59:24;;;;;;;;;3.50;3.50;;;;;;;;6302278;22;45373;-69
2021/08/26 06:01:49;;;;;;;;;4.00;3.00;;;;;;;;6274299;22;47491;-70
2021/08/26 06:04:14;;;;;;;;;4.50;4.50;;;;;;;;6302868;22;45450;-71
2021/08/26 06:06:39;;;;;;;;;3.75;3.75;;;;;;;;6303261;22;45296;-70
2021/08/26 06:09:04;;;;;;;;;4.00;4.00;;;;;;;;6302922;22;45466;-71
2021/08/26 06:11:31;;;;;;;;;8.25;7.75;;;;;;;;6301948;22;47034;-71
2021/08/26 06:13:56;;;;;;;;;4.25;4.00;;;;;;;;6302038;22;45488;-72
2021/08/26 06:16:21;;;;;;;;;4.50;3.00;;;;;;;;6302005;22;45409;-69
2021/08/26 06:18:46;;;;;;;;;6.00;5.00;;;;;;;;6302182;22;45221;-71
2021/08/26 06:21:14;;;;;;;;;5.00;3.00;;;;;;;;6301301;22;46104;-72
2021/08/26 06:23:39;;;;;;;;;4.50;4.50;;;;;;;;6301760;22;45273;-71
2021/08/26 06:26:04;;;;;;;;;5.75;5.75;;;;;;;;6302063;22;45147;-70
2021/08/26 06:28:31;;;;;;;;;6.50;4.50;;;;;;;;6302197;22;45369;-70
2021/08/26 06:30:56;;;;;;;;;4.50;3.25;;;;;;;;6301394;22;45378;-71
2021/08/26 06:33:21;;;;;;;;;7.50;5.75;;;;;;;;6274625;22;45788;-71
2021/08/26 06:35:46;;;;;;;;;5.00;3.00;;;;;;;;6302429;22;45142;-71
2021/08/26 06:38:11;;;;;;;;;5.00;5.00;;;;;;;;6273579;22;45496;-71
2021/08/26 06:40:37;;;;;;;;;9.50;7.50;;;;;;;;6302021;22;45316;-71
2021/08/26 06:43:02;;;;;;;;;4.00;3.00;;;;;;;;6302248;22;45276;-71
2021/08/26 06:45:27;;;;;;;;;3.75;3.75;;;;;;;;6301432;22;45140;-71
2021/08/26 06:47:53;;;;;;;;;8.50;8.25;;;;;;;;6274049;22;45528;-71
2021/08/26 06:50:18;;;;;;;;;5.25;4.00;;;;;;;;6301812;22;46133;-70
2021/08/26 06:52:43;;;;;;;;;6.25;4.25;;;;;;;;6301664;22;45293;-70
2021/08/26 06:55:08;;;;;;;;;9.00;5.75;;;;;;;;6301555;22;45307;-71
2021/08/26 06:57:34;;;;;;;;;4.25;4.00;;;;;;;;6301746;22;45417;-71
2021/08/26 06:59:59;;;;;;;;;5.00;5.00;;;;;;;;6300859;22;45957;-71
2021/08/26 07:02:24;;;;;;;;;4.75;3.75;;;;;;;;6302028;22;45332;-70
2021/08/26 07:04:49;;;;;;;;;8.50;7.50;;;;;;;;6302286;22;45320;-71
2021/08/26 07:07:14;;;;;;;;;6.75;5.25;;;;;;;;6301842;22;45236;-71
2021/08/26 07:09:39;;;;;;;;;7.75;7.25;;;;;;;;6302429;22;45365;-70
2021/08/26 07:12:05;;;;;;;;;5.00;5.00;;;;;;;;6303113;22;45326;-71
2021/08/26 07:14:30;;;;;;;;;11.00;11.00;;;;;;;;6302560;22;45307;-71
2021/08/26 07:16:55;;;;;;;;;5.00;4.00;;;;;;;;6303183;22;45288;-71
2021/08/26 07:19:21;;;;;;;;;9.25;5.25;;;;;;;;6303635;22;45295;-71
2021/08/26 07:21:47;;;;;;;;;4.00;4.00;;;;;;;;6303385;22;45364;-72
2021/08/26 07:24:13;;;;;;;;;6.50;4.25;;;;;;;;6302721;22;45324;-71
2021/08/26 07:26:38;;;;;;;;;3.25;3.25;;;;;;;;6303501;22;45233;-71
2021/08/26 07:29:03;;;;;;;;;5.75;5.75;;;;;;;;6302833;22;45472;-71
2021/08/26 07:31:28;;;;;;;;;5.00;4.00;;;;;;;;6303274;22;45276;-71
2021/08/26 07:33:54;;;;;;;;;7.50;5.50;;;;;;;;6302867;22;45318;-71
2021/08/26 07:36:19;;;;;;;;;8.00;6.50;;;;;;;;6303689;22;45412;-71
2021/08/26 07:38:44;;;;;;;;;7.75;7.75;;;;;;;;6302126;22;46052;-71
2021/08/26 07:41:09;;;;;;;;;5.00;3.00;;;;;;;;6303522;22;45205;-72
2021/08/26 07:43:36;;;;;;;;;5.75;4.50;;;;;;;;6303099;22;45130;-71
2021/08/26 07:46:02;;;;;;;;;5.50;5.50;;;;;;;;6302763;22;45329;-72
2021/08/26 07:48:27;;;;;;;;;6.25;6.25;;;;;;;;6303049;22;45299;-72
2021/08/26 07:50:53;;;;;;;;;7.50;4.25;;;;;;;;6302840;22;45222;-71
2021/08/26 07:53:19;;;;;;;;;6.25;6.00;;;;;;;;6303091;22;45273;-71
2021/08/26 07:55:44;;;;;;;;;12.75;11.25;;;;;;;;6303121;22;45333;-72
2021/08/26 07:58:09;;;;;;;;;8.00;7.25;;;;;;;;6274113;22;47243;-71
2021/08/26 08:00:34;;;;;;;;;9.50;9.50;;;;;;;;6303612;22;45264;-71
2021/08/26 08:03:00;;;;;;;;;8.50;8.50;;;;;;;;6303962;22;45351;-71
2021/08/26 08:05:25;;;;;;;;;8.25;7.50;;;;;;;;6302716;22;45300;-71
2021/08/26 08:07:50;;;;;;;;;7.25;5.75;;;;;;;;6303497;22;45474;-72
2021/08/26 08:10:16;;;;;;;;;10.00;7.00;;;;;;;;6303454;22;45327;-72
2021/08/26 08:12:41;;;;;;;;;6.50;6.50;;;;;;;;6303487;22;45268;-71
2021/08/26 08:15:07;;;;;;;;;8.00;6.00;;;;;;;;6302923;22;45400;-71
2021/08/26 08:17:32;;;;;;;;;6.75;5.25;;;;;;;;6302505;22;47475;-72
2021/08/26 08:19:57;;;;;;;;;8.50;6.75;;;;;;;;6303264;22;45226;-70
2021/08/26 08:22:23;;;;;;;;;4.75;4.75;;;;;;;;6303065;22;45315;-72
2021/08/26 08:24:48;;;;;;;;;11.00;10.50;;;;;;;;6303076;22;45284;-70
2021/08/26 08:27:13;;;;;;;;;6.25;4.00;;;;;;;;6302034;22;47179;-71
2021/08/26 08:29:38;;;;;;;;;7.75;4.25;;;;;;;;6303368;22;45412;-71
2021/08/26 08:32:04;;;;;;;;;5.00;5.00;;;;;;;;6303068;22;45247;-72
2021/08/26 08:34:29;;;;;;;;;8.75;5.50;;;;;;;;6303050;22;45401;-72
2021/08/26 08:36:55;;;;;;;;;6.75;5.75;;;;;;;;6303129;22;45202;-72
2021/08/26 08:39:21;;;;;;;;;7.00;6.50;;;;;;;;6303226;22;45151;-70
2021/08/26 08:41:47;;;;;;;;;6.00;6.00;;;;;;;;6302819;22;45228;-71
2021/08/26 08:44:12;;;;;;;;;6.00;5.75;;;;;;;;6302990;22;45457;-72
2021/08/26 08:46:39;;;;;;;;;6.75;6.75;;;;;;;;6302097;22;46064;-71
2021/08/26 08:49:04;;;;;;;;;7.25;6.25;;;;;;;;6301840;22;45357;-72
2021/08/26 08:51:30;;;;;;;;;5.50;5.50;;;;;;;;6301832;22;45354;-71
2021/08/26 08:53:56;;;;;;;;;10.25;6.25;;;;;;;;6302996;22;45553;-70
2021/08/26 08:56:26;;;;;;;;;7.25;4.75;;;;;;;;6302482;22;45300;-71
2021/08/26 08:58:53;;;;;;;;;6.25;5.50;;;;;;;;6302537;22;45250;-73
2021/08/26 09:01:18;;;;;;;;;6.00;3.50;;;;;;;;6302933;22;45205;-71
2021/08/26 09:03:43;;;;;;;;;4.00;4.00;;;;;;;;6302712;22;45484;-70
2021/08/26 09:06:08;;;;;;;;;7.00;7.00;;;;;;;;6302915;22;46066;-71
2021/08/26 09:08:34;;;;;;;;;4.00;4.00;;;;;;;;6302978;22;45225;-70
2021/08/26 09:11:20;;;;;;;;;5.50;3.00;;;;;;;;6274587;22;45387;-69
2021/08/26 09:13:46;;;;;;;;;4.75;4.75;;;;;;;;6302975;22;45362;-71
2021/08/26 09:16:11;;;;;;;;;2.75;2.50;;;;;;;;6301999;22;46147;-72
2021/08/26 09:18:37;;;;;;;;;3.00;2.00;;;;;;;;6303392;22;45359;-72
2021/08/26 09:21:07;;;;;;;;;6.50;4.75;;;;;;;;6303074;22;45210;-72
2021/08/26 09:23:33;;;;;;;;;5.00;4.00;;;;;;;;6301986;22;45400;-72
2021/08/26 09:26:24;;;;;;;;;2.25;2.25;;;;;;;;6301568;22;46193;-72
2021/08/26 09:28:50;;;;;;;;;7.00;4.75;;;;;;;;6295791;22;45249;-72
2021/08/26 09:31:15;;;;;;;;;9.50;7.00;;;;;;;;6302762;22;45268;-72
2021/08/26 09:33:59;;;;;;;;;3.25;3.25;;;;;;;;6303162;22;45206;-72
2021/08/26 09:36:38;;;;;;;;;3.00;3.00;;;;;;;;6302026;22;47132;-70
2021/08/26 09:39:05;;;;;;;;;4.00;2.75;;;;;;;;6302165;22;45388;-72
2021/08/26 09:41:35;;;;;;;;;6.00;4.00;;;;;;;;6274791;22;45298;-70
2021/08/26 09:44:01;;;;;;;;;3.00;3.00;;;;;;;;6274289;22;45411;-70
2021/08/26 09:46:30;;;;;;;;;5.00;4.00;;;;;;;;6301476;22;47033;-70
2021/08/26 09:49:05;;;;;;;;;2.00;2.00;;;;;;;;6301909;22;45365;-71
2021/08/26 09:51:31;;;;;;;;;3.00;2.50;;;;;;;;6302525;22;45286;-72
2021/08/26 09:53:56;;;;;;;;;1.75;1.75;;;;;;;;6301694;22;45275;-71
2021/08/26 09:56:21;;;;;;;;;3.75;3.75;;;;;;;;6301915;22;46767;-72
2021/08/26 09:58:52;;;;;;;;;2.00;1.00;;;;;;;;6302664;22;45339;-71
2021/08/26 10:01:20;;;;;;;;;1.00;1.00;;;;;;;;6302591;22;45214;-71
2021/08/26 10:03:45;;;;;;;;;2.33;2.33;;;;;;;;6302204;22;45396;-71
2021/08/26 10:06:11;;;;;;;;;3.00;3.00;;;;;;;;6301411;22;46836;-71
2021/08/26 10:08:38;;;;;;;;;4.00;3.00;;;;;;;;6302130;22;45494;-71
2021/08/26 10:11:06;;;;;;;;;1.67;1.67;;;;;;;;6302875;22;45349;-70
2021/08/26 10:13:32;;;;;;;;;2.00;2.00;;;;;;;;6301933;22;45352;-72
2021/08/26 10:15:58;;;;;;;;;2.33;2.33;;;;;;;;6301640;22;46750;-72
2021/08/26 10:18:23;;;;;;;;;3.00;3.00;;;;;;;;6302557;22;45295;-72
2021/08/26 10:20:48;;;;;;;;;2.00;1.00;;;;;;;;6302106;22;45367;-71
2021/08/26 10:23:14;;;;;;;;;2.67;2.67;;;;;;;;6272931;22;45218;-71
2021/08/26 10:25:42;;;;;;;;;0.00;0.00;;;;;;;;6302039;22;45920;-70
2021/08/26 10:28:08;;;;;;;;;1.00;0.00;;;;;;;;6300926;22;45327;-72
2021/08/26 10:30:35;;;;;;;;;1.00;1.00;;;;;;;;6302112;22;45327;-72
2021/08/26 10:33:11;;;;;;;;;0.67;0.67;;;;;;;;6301591;22;45225;-73
2021/08/26 10:36:02;;;;;;;;;1.00;1.00;;;;;;;;6301630;22;46075;-72
2021/08/26 10:38:31;;;;;;;;;2.33;2.33;;;;;;;;6300924;22;45373;-72
2021/08/26 10:40:57;;;;;;;;;5.00;3.33;;;;;;;;6301785;22;45213;-71
2021/08/26 10:43:32;;;;;;;;;1.00;1.00;;;;;;;;6300656;22;45268;-71
2021/08/26 10:45:57;;;;;;;;;0.00;0.00;;;;;;;;6301840;22;46279;-71
2021/08/26 10:48:25;;;;;;;;;1.00;1.00;;;;;;;;6302731;22;45306;-71
2021/08/26 10:51:04;;;;;;;;;5.00;2.67;;;;;;;;6303045;22;45377;-71
2021/08/26 10:53:30;;;;;;;;;1.33;1.00;;;;;;;;6302341;22;45438;-72
2021/08/26 10:55:57;;;;;;;;;4.00;4.00;;;;;;;;6302863;22;46037;-71
2021/08/26 10:58:22;;;;;;;;;5.67;4.67;;;;;;;;6302261;22;45448;-72
2021/08/26 11:00:50;;;;;;;;;5.00;5.00;;;;;;;;6302878;22;45216;-71
2021/08/26 11:03:34;;;;;;;;;4.67;4.67;;;;;;;;6303286;22;45331;-72
2021/08/26 11:06:00;;;;;;;;;4.00;4.00;;;;;;;;6302531;22;46001;-72
2021/08/26 11:08:25;;;;;;;;;1.00;1.00;;;;;;;;6303238;22;45569;-71
2021/08/26 11:10:51;;;;;;;;;4.33;4.33;;;;;;;;6302775;22;45319;-72
2021/08/26 11:13:32;;;;;;;;;7.00;6.00;;;;;;;;6302717;22;45220;-72
2021/08/26 11:16:17;;;;;;;;;4.00;4.00;;;;;;;;6302900;22;46114;-72
2021/08/26 11:18:42;;;;;;;;;3.33;3.33;;;;;;;;6303083;22;45265;-72
2021/08/26 11:21:08;;;;;;;;;4.00;4.00;;;;;;;;6303326;22;45241;-72
2021/08/26 11:23:44;;;;;;;;;4.00;4.00;;;;;;;;6302715;22;45222;-71
2021/08/26 11:26:27;;;;;;;;;3.00;3.00;;;;;;;;6269322;22;47137;-73
2021/08/26 11:28:53;;;;;;;;;3.33;3.00;;;;;;;;6271305;22;45276;-71
2021/08/26 11:31:19;;;;;;;;;4.33;2.00;;;;;;;;6270564;22;45266;-73
2021/08/26 11:33:44;;;;;;;;;3.33;3.33;;;;;;;;6271829;22;45210;-71
2021/08/26 11:36:13;;;;;;;;;3.33;2.33;;;;;;;;6271418;22;45248;-71
2021/08/26 11:38:49;;;;;;;;;4.00;4.00;;;;;;;;6271453;22;45280;-72
2021/08/26 11:41:14;;;;;;;;;4.00;3.67;;;;;;;;6271382;22;45187;-71
2021/08/26 11:43:43;;;;;;;;;3.00;3.00;;;;;;;;6269945;22;45204;-70
2021/08/26 11:46:13;;;;;;;;;4.67;3.33;;;;;;;;6270968;22;46317;-71
2021/08/26 11:48:54;;;;;;;;;2.33;2.33;;;;;;;;6271044;22;45254;-71
2021/08/26 11:51:21;;;;;;;;;3.00;1.67;;;;;;;;6270957;22;45323;-72
2021/08/26 11:53:46;;;;;;;;;2.00;2.00;;;;;;;;6271729;22;45289;-73
2021/08/26 11:56:11;;;;;;;;;2.67;2.67;;;;;;;;6270873;22;45929;-72
2021/08/26 11:58:36;;;;;;;;;3.00;3.00;;;;;;;;6271839;22;45305;-72
2021/08/26 12:01:01;;;;;;;;;4.33;3.00;;;;;;;;6271890;22;45572;-71
2021/08/26 12:03:27;;;;;;;;;2.00;2.00;;;;;;;;6271259;22;45245;-72
2021/08/26 12:05:52;;;;;;;;;5.00;4.00;;;;;;;;6270235;22;46174;-71
2021/08/26 12:08:18;;;;;;;;;6.67;3.00;;;;;;;;6271031;22;45310;-72
2021/08/26 12:10:45;;;;;;;;;6.33;5.33;;;;;;;;6271239;22;45311;-72
2021/08/26 12:13:14;;;;;;;;;5.00;5.00;;;;;;;;6272347;22;45229;-72
2021/08/26 12:15:39;;;;;;;;;5.00;5.00;;;;;;;;6271338;22;46161;-72
2021/08/26 12:18:13;;;;;;;;;4.00;4.00;;;;;;;;6271678;22;45437;-72
2021/08/26 12:20:41;;;;;;;;;5.00;3.67;;;;;;;;6271395;22;45305;-72
2021/08/26 12:23:07;;;;;;;;;6.00;6.00;;;;;;;;6269185;22;45617;-71
2021/08/26 12:25:34;;;;;;;;;7.00;7.00;;;;;;;;6268691;22;47331;-70
2021/08/26 12:28:01;;;;;;;;;6.00;6.00;;;;;;;;6270868;22;45210;-71
2021/08/26 12:30:42;;;;;;;;;7.25;6.50;;;;;;;;6271627;22;45251;-71
2021/08/26 12:33:15;;;;;;;;;8.75;6.00;;;;;;;;6271543;22;45412;-71
2021/08/26 12:35:40;;;;;;;;;6.00;6.00;;;;;;;;6270950;22;45970;-71
2021/08/26 12:38:05;;;;;;;;;6.25;6.25;;;;;;;;6271089;22;45409;-71
2021/08/26 12:40:45;;;;;;;;;7.00;6.00;;;;;;;;6272078;22;45406;-71
2021/08/26 12:43:11;;;;;;;;;9.25;7.00;;;;;;;;6269189;22;45189;-71
2021/08/26 12:45:36;;;;;;;;;6.00;5.00;;;;;;;;6270775;22;45270;-71
2021/08/26 12:48:20;;;;;;;;;4.67;4.67;;;;;;;;6270347;22;45338;-71
2021/08/26 12:50:45;;;;;;;;;5.50;5.00;;;;;;;;6270851;22;45258;-73
2021/08/26 12:53:17;;;;;;;;;6.00;6.00;;;;;;;;6270900;22;45347;-71
2021/08/26 12:56:03;;;;;;;;;6.75;6.25;;;;;;;;6271505;22;46144;-71
2021/08/26 12:58:28;;;;;;;;;5.25;5.25;;;;;;;;6270499;22;45227;-72
2021/08/26 13:00:55;;;;;;;;;4.25;4.25;;;;;;;;6271052;22;45301;-71
2021/08/26 13:03:21;;;;;;;;;7.00;5.00;;;;;;;;6270913;22;45179;-71
2021/08/26 13:05:50;;;;;;;;;10.50;8.00;;;;;;;;6271181;22;45233;-70
2021/08/26 13:08:16;;;;;;;;;6.75;6.25;;;;;;;;6270372;22;45335;-72
2021/08/26 13:10:42;;;;;;;;;3.67;3.67;;;;;;;;6270662;22;45342;-72
2021/08/26 13:13:12;;;;;;;;;7.00;5.33;;;;;;;;6271950;22;45301;-71
2021/08/26 13:15:37;;;;;;;;;11.50;10.00;;;;;;;;6270908;22;45263;-71
2021/08/26 13:18:03;;;;;;;;;4.67;3.33;;;;;;;;6270320;22;45323;-72
2021/08/26 13:20:29;;;;;;;;;8.00;6.50;;;;;;;;6270602;22;45188;-71
2021/08/26 13:22:54;;;;;;;;;7.33;5.00;;;;;;;;6270650;22;45342;-71
2021/08/26 13:25:19;;;;;;;;;3.33;3.33;;;;;;;;6288854;22;46124;-71
2021/08/26 13:27:44;;;;;;;;;5.67;3.00;;;;;;;;6302407;22;45339;-72
2021/08/26 13:30:11;;;;;;;;;4.00;4.00;;;;;;;;6301951;22;45381;-72
2021/08/26 13:32:37;;;;;;;;;5.00;5.00;;;;;;;;6301561;22;45336;-72
2021/08/26 13:35:08;;;;;;;;;5.00;5.00;;;;;;;;6301906;22;47399;-72
2021/08/26 13:37:33;;;;;;;;;5.33;4.67;;;;;;;;6302318;22;45208;-72
2021/08/26 13:39:59;;;;;;;;;3.00;3.00;;;;;;;;6301816;22;45161;-72
2021/08/26 13:42:24;;;;;;;;;3.33;3.33;;;;;;;;6303181;22;45206;-73
2021/08/26 13:44:49;;;;;;;;;2.33;2.33;;;;;;;;6302557;22;45759;-72
2021/08/26 13:47:15;;;;;;;;;7.33;6.33;;;;;;;;6300552;22;45290;-72
2021/08/26 13:49:40;;;;;;;;;6.00;3.33;;;;;;;;6302105;22;45309;-70
2021/08/26 13:52:06;;;;;;;;;6.33;5.00;;;;;;;;6302460;22;45241;-71
2021/08/26 13:54:32;;;;;;;;;6.33;5.00;;;;;;;;6302747;22;46048;-71
2021/08/26 13:56:57;;;;;;;;;6.00;4.33;;;;;;;;6302748;22;45690;-71
2021/08/26 13:59:22;;;;;;;;;4.00;4.00;;;;;;;;6301804;22;45264;-71
2021/08/26 14:01:49;;;;;;;;;5.00;5.00;;;;;;;;6301811;22;45356;-72
2021/08/26 14:04:14;;;;;;;;;6.67;6.00;;;;;;;;6301074;22;46024;-72
2021/08/26 14:06:39;;;;;;;;;6.00;5.33;;;;;;;;6301620;22;45240;-70
2021/08/26 14:09:05;;;;;;;;;5.67;5.67;;;;;;;;6301619;22;45683;-72
2021/08/26 14:11:30;;;;;;;;;4.33;4.33;;;;;;;;6301974;22;45384;-71
2021/08/26 14:13:55;;;;;;;;;7.00;5.00;;;;;;;;6302148;22;45262;-71
2021/08/26 14:16:20;;;;;;;;;4.67;4.00;;;;;;;;6300749;22;45261;-72
2021/08/26 14:18:46;;;;;;;;;7.00;4.00;;;;;;;;6301795;22;45265;-72
2021/08/26 14:21:11;;;;;;;;;4.00;3.00;;;;;;;;6301696;22;45301;-71
2021/08/26 14:23:37;;;;;;;;;5.33;4.33;;;;;;;;6301590;22;45216;-71
2021/08/26 14:26:03;;;;;;;;;7.67;6.33;;;;;;;;6301355;22;45368;-71
2021/08/26 14:28:28;;;;;;;;;6.67;5.00;;;;;;;;6301967;22;45240;-70
2021/08/26 14:30:53;;;;;;;;;5.00;5.00;;;;;;;;6302097;22;45479;-71
2021/08/26 14:33:19;;;;;;;;;5.00;3.33;;;;;;;;6302216;22;46011;-72
2021/08/26 14:35:45;;;;;;;;;4.67;4.67;;;;;;;;6302140;22;45326;-71
2021/08/26 14:38:10;;;;;;;;;5.33;4.67;;;;;;;;6301928;22;45290;-71
2021/08/26 14:40:36;;;;;;;;;4.00;4.00;;;;;;;;6301848;22;45325;-72